メインページ
METAR-TAF:

METAR-TAF

空港 :

ハマド国際空港

ドーハ, カタール

緯度: 25-16-23N, 経度: 51-36-29E, 海抜: 4m

現時点の気象観測

当レポートは1時間9分前の16:00(UTC)に作成
北/北東の風 2kt
気温 34°C
湿度 47%
気圧 1006 hPa
視程10km以上
1,500メートル以下は雲なし、積乱雲なし

METAR: OTHH 251600Z AUTO 02002KT CAVOK 34/21 Q1006 NOSIG

時間: 20:09 (17:09 UTC)

予報

当レポートは6時間9分前の11:00(UTC)に作成
予報は25日の 12時(UTC)から 26日の 18時(UTC)まで有効
東/南東の風 10kt
視程: 7000m
25日の 17時(UTC)から 25日の 22時(UTC)まで一時的に
変向風 2kt
確率 30% :
25日の 23時(UTC)から 26日の 05時(UTC)まで一時的に
北/北西の風 5kt
視程: 5000m
煙霧
26日の 01時(UTC)から 26日の 03時(UTC)まで徐々に
西/南西の風 9kt

TAF: OTHH 251100Z 2512/2618 11010KT 7000 NSC TEMPO 2517/2522 VRB02KT PROB30 TEMPO 2523/2605 33005KT 5000 HZ BECMG 2601/2603 25009KT

4,000以上の空港の気象観測と天気予報(METAR報とTAF報)

利用可能な観測所は地図上に黄色い丸と赤い丸で示す。

丸の上にカーソルを重ねると観測所名を参照できる。

次にクリックすると気象観測と天気予報を参照できる。

マップの切り替え:黒色「×」印の緑ボタンをクリックして拡大、「-」印の緑ボタンをクリックして縮小、緑色の三角印をクリックして隣りの地図に切り替え


METAR-TAF: